Time;durP1;ratioP1;P1;durP2;ratioP2;P2;SDS_P1;SDS_P2;PMS_P1;PMS_P2;Temp;Humidity;BMP_temperature;BMP_pressure;BME280_temperature;BME280_humidity;BME280_pressure;Samples;Min_cycle;Max_cycle;Signal;HPM_P1;HPM_P2
2023/05/20 00:02:23;;;;;;;;;;;;;;;12.32;64.06;102358.75;5047699;28;1180;-81
2023/05/20 00:04:48;;;;;;;;;;;;;;;12.31;64.47;102362.28;5045139;28;1378;-80
2023/05/20 00:07:13;;;;;;;;;;;;;;;12.33;64.07;102367.38;5047259;28;1363;-81
2023/05/20 00:09:38;;;;;;;;;;;;;;;12.31;63.77;102364.88;5048733;28;1184;-81
2023/05/20 00:12:04;;;;;;;;;;;;;;;12.30;64.30;102370.19;5042472;28;1484;-81
2023/05/20 00:14:29;;;;;;;;;;;;;;;12.26;64.28;102368.72;5044140;28;1520;-81
2023/05/20 00:16:54;;;;;;;;;;;;;;;12.20;64.64;102367.34;5044491;28;1211;-80
2023/05/20 00:19:20;;;;;;;;;;;;;;;12.20;64.71;102359.53;5047399;28;1906;-81
2023/05/20 00:21:45;;;;;;;;;;;;;;;12.15;66.55;102362.41;5045361;28;1202;-80
2023/05/20 00:24:11;;;;;;;;;;;;;;;12.12;66.25;102356.59;5047761;28;1248;-81
2023/05/20 00:26:36;;;;;;;;;;;;;;;12.05;66.44;102371.75;5045988;28;1360;-81
2023/05/20 00:29:01;;;;;;;;;;;;;;;12.01;66.60;102370.28;5045957;28;1305;-83
2023/05/20 00:31:26;;;;;;;;;;;;;;;11.94;67.53;102358.59;5048280;28;1529;-81
2023/05/20 00:33:51;;;;;;;;;;;;;;;11.89;66.87;102365.84;5045661;28;1228;-81
2023/05/20 00:36:17;;;;;;;;;;;;;;;11.86;66.15;102360.81;5047485;28;1049;-80
2023/05/20 00:38:42;;;;;;;;;;;;;;;11.85;66.90;102359.16;5047744;28;1264;-80
2023/05/20 00:41:07;;;;;;;;;;;;;;;11.86;66.50;102360.81;5047373;28;1886;-81
2023/05/20 00:43:32;;;;;;;;;;;;;;;11.83;66.25;102361.88;5047626;28;1228;-80
2023/05/20 00:45:58;;;;;;;;;;;;;;;11.83;66.52;102361.03;5045518;28;1232;-81
2023/05/20 00:48:24;;;;;;;;;;;;;;;11.83;67.38;102366.22;5047411;28;1196;-79
2023/05/20 00:50:49;;;;;;;;;;;;;;;11.80;66.36;102367.22;5047504;28;1161;-81
2023/05/20 00:53:18;;;;;;;;;;;;;;;11.77;67.33;102356.19;5047201;28;1530;-81
2023/05/20 00:55:44;;;;;;;;;;;;;;;11.70;68.34;102351.38;5046904;28;1533;-80
2023/05/20 00:58:10;;;;;;;;;;;;;;;11.70;67.61;102348.78;5046845;28;1492;-81
2023/05/20 01:00:35;;;;;;;;;;;;;;;11.70;66.71;102340.13;5047773;28;1901;-80
2023/05/20 01:03:00;;;;;;;;;;;;;;;11.70;66.62;102334.94;5046350;28;1228;-81
2023/05/20 01:05:25;;;;;;;;;;;;;;;11.70;67.28;102340.13;5047102;28;1534;-81
2023/05/20 01:07:51;;;;;;;;;;;;;;;11.68;67.17;102342.81;5045009;28;1350;-81
2023/05/20 01:10:16;;;;;;;;;;;;;;;11.64;67.99;102336.16;5051708;28;1366;-81
2023/05/20 01:12:44;;;;;;;;;;;;;;;11.63;67.22;102339.66;5042845;28;1147;-81
2023/05/20 01:15:11;;;;;;;;;;;;;;;11.63;67.42;102350.06;5046073;28;1210;-81
2023/05/20 01:17:45;;;;;;;;;;;;;;;11.62;67.55;102338.00;5054968;28;1080;-81
2023/05/20 01:20:12;;;;;;;;;;;;;;;11.61;67.61;102336.34;5049197;28;1897;-81
2023/05/20 01:22:38;;;;;;;;;;;;;;;11.63;67.31;102339.66;5057293;28;1082;-81
2023/05/20 01:25:04;;;;;;;;;;;;;;;11.62;67.51;102342.38;5050843;28;1084;-81
2023/05/20 01:27:30;;;;;;;;;;;;;;;11.61;68.73;102336.34;5050875;28;1085;-81
2023/05/20 01:29:55;;;;;;;;;;;;;;;11.58;67.76;102336.50;5049610;28;1372;-82
2023/05/20 01:32:21;;;;;;;;;;;;;;;11.59;67.80;102348.59;5050236;28;1097;-81
2023/05/20 01:34:48;;;;;;;;;;;;;;;11.56;69.46;102330.56;5051052;28;1393;-82
2023/05/20 01:37:14;;;;;;;;;;;;;;;11.55;68.96;102341.91;5058910;28;1333;-81
2023/05/20 01:39:43;;;;;;;;;;;;;;;11.51;68.28;102330.03;5050864;28;1954;-81
2023/05/20 01:42:09;;;;;;;;;;;;;;;11.50;68.64;102328.34;5049859;28;1271;-81
2023/05/20 01:44:34;;;;;;;;;;;;;;;11.51;69.67;102332.63;5050408;28;1375;-80
2023/05/20 01:47:00;;;;;;;;;;;;;;;11.48;69.12;102327.63;5049288;28;1188;-82
2023/05/20 01:49:25;;;;;;;;;;;;;;;11.46;69.35;102321.66;5052109;28;1091;-82
2023/05/20 01:51:50;;;;;;;;;;;;;;;11.43;69.46;102316.69;5047928;28;1187;-81
2023/05/20 01:54:16;;;;;;;;;;;;;;;11.42;69.47;102317.63;5050581;28;1240;-82
2023/05/20 01:56:41;;;;;;;;;;;;;;;11.45;68.65;102314.81;5049973;28;1276;-81
2023/05/20 01:59:06;;;;;;;;;;;;;;;11.45;68.39;102314.81;5049950;28;1882;-81
2023/05/20 02:01:31;;;;;;;;;;;;;;;11.44;69.42;102319.19;5049633;28;1180;-81
2023/05/20 02:03:56;;;;;;;;;;;;;;;11.43;70.70;102311.50;5049055;28;1263;-80
2023/05/20 02:06:22;;;;;;;;;;;;;;;11.43;70.38;102311.50;5048233;28;1470;-80
2023/05/20 02:08:47;;;;;;;;;;;;;;;11.43;69.12;102311.50;5048504;28;1252;-81
2023/05/20 02:11:12;;;;;;;;;;;;;;;11.42;70.19;102309.81;5047932;28;1288;-81
2023/05/20 02:13:37;;;;;;;;;;;;;;;11.37;69.94;102319.66;5048593;28;1183;-81
2023/05/20 02:16:03;;;;;;;;;;;;;;;11.35;71.76;102318.91;5048218;28;1246;-81
2023/05/20 02:18:28;;;;;;;;;;;;;;;11.32;71.71;102319.09;5050294;28;1290;-81
2023/05/20 02:20:53;;;;;;;;;;;;;;;11.29;70.12;102314.06;5047807;28;1964;-81
2023/05/20 02:23:18;;;;;;;;;;;;;;;11.32;70.61;102313.91;5052992;28;1306;-82
2023/05/20 02:25:44;;;;;;;;;;;;;;;11.32;71.83;102308.72;5048535;28;1398;-82
2023/05/20 02:28:09;;;;;;;;;;;;;;;11.30;71.23;102306.22;5048116;28;1351;-81
2023/05/20 02:30:36;;;;;;;;;;;;;;;11.28;72.56;102312.41;5049384;28;1220;-80
2023/05/20 02:33:01;;;;;;;;;;;;;;;11.28;70.58;102307.22;5047830;28;1402;-80
2023/05/20 02:35:26;;;;;;;;;;;;;;;11.27;72.08;102297.75;5050049;28;1161;-82
2023/05/20 02:37:51;;;;;;;;;;;;;;;11.25;71.64;102297.03;5047857;28;1353;-82
2023/05/20 02:40:17;;;;;;;;;;;;;;;11.24;71.49;102301.41;5060689;28;1898;-81
2023/05/20 02:42:42;;;;;;;;;;;;;;;11.23;72.82;102304.91;5048513;28;1330;-81
2023/05/20 02:45:07;;;;;;;;;;;;;;;11.25;72.04;102302.22;5046194;28;1565;-81
2023/05/20 02:47:32;;;;;;;;;;;;;;;11.26;72.81;102298.69;5058753;28;1310;-81
2023/05/20 02:49:58;;;;;;;;;;;;;;;11.23;72.12;102299.69;5047282;28;1377;-81
2023/05/20 02:52:23;;;;;;;;;;;;;;;11.24;71.88;102295.34;5058311;28;1230;-81
2023/05/20 02:54:48;;;;;;;;;;;;;;;11.23;71.71;102293.69;5050915;28;1313;-79
2023/05/20 02:57:13;;;;;;;;;;;;;;;11.24;71.12;102292.75;5049621;28;1320;-81
2023/05/20 02:59:39;;;;;;;;;;;;;;;11.25;71.11;102297.03;5049667;28;1965;-80
2023/05/20 03:02:04;;;;;;;;;;;;;;;11.21;71.89;102296.38;5052806;28;1232;-81
2023/05/20 03:04:30;;;;;;;;;;;;;;;11.21;71.26;102290.34;5046702;28;1170;-81
2023/05/20 03:06:56;;;;;;;;;;;;;;;11.21;71.85;102295.53;5048657;28;1195;-81
2023/05/20 03:09:22;;;;;;;;;;;;;;;11.21;72.17;102291.19;5052972;28;1544;-82
2023/05/20 03:11:47;;;;;;;;;;;;;;;11.21;71.77;102287.75;5048589;28;992;-82
2023/05/20 03:14:12;;;;;;;;;;;;;;;11.17;72.37;102285.31;5051604;28;1274;-80
2023/05/20 03:16:38;;;;;;;;;;;;;;;11.15;72.04;102297.56;5061512;28;1321;-81
2023/05/20 03:19:03;;;;;;;;;;;;;;;11.13;72.23;102296.84;5045969;28;1906;-79
2023/05/20 03:21:29;;;;;;;;;;;;;;;11.09;72.56;102297.94;5047730;28;1207;-81
2023/05/20 03:23:54;;;;;;;;;;;;;;;11.05;73.48;102291.25;5050893;28;1239;-82
2023/05/20 03:26:20;;;;;;;;;;;;;;;11.02;72.36;102301.00;5062593;28;1214;-80
2023/05/20 03:28:45;;;;;;;;;;;;;;;11.00;72.08;102298.50;5051926;28;1246;-81
2023/05/20 03:31:11;;;;;;;;;;;;;;;10.97;73.03;102303.88;5048479;28;1029;-82
2023/05/20 03:33:36;;;;;;;;;;;;;;;10.94;72.64;102293.66;5048612;28;1127;-81
2023/05/20 03:36:01;;;;;;;;;;;;;;;10.95;72.78;102305.72;5047032;28;1194;-82
2023/05/20 03:38:26;;;;;;;;;;;;;;;10.96;73.37;102306.56;5047114;28;1446;-82
2023/05/20 03:40:51;;;;;;;;;;;;;;;10.97;73.41;102298.69;5047742;28;1981;-81
2023/05/20 03:43:17;;;;;;;;;;;;;;;10.97;74.17;102298.69;5047595;28;1434;-81
2023/05/20 03:45:42;;;;;;;;;;;;;;;10.95;73.70;102295.34;5051200;28;1263;-80
2023/05/20 03:48:07;;;;;;;;;;;;;;;10.94;73.23;102293.66;5046517;28;1305;-81
2023/05/20 03:50:32;;;;;;;;;;;;;;;10.92;73.53;102300.72;5047777;28;1248;-81
2023/05/20 03:52:57;;;;;;;;;;;;;;;10.90;73.58;102297.38;5050225;28;1472;-80
2023/05/20 03:55:23;;;;;;;;;;;;;;;10.89;73.80;102296.53;5048595;28;1678;-81
2023/05/20 03:57:49;;;;;;;;;;;;;;;10.87;72.95;102300.16;5047217;28;1376;-79
2023/05/20 04:00:15;;;;;;;;;;;;;;;10.88;73.38;102294.03;5060531;28;1898;-80
2023/05/20 04:02:40;;;;;;;;;;;;;;;10.88;73.88;102299.22;5061153;28;1263;-81
2023/05/20 04:05:07;;;;;;;;;;;;;;;10.86;74.71;102290.69;5046610;28;1259;-80
2023/05/20 04:07:33;;;;;;;;;;;;;;;10.85;74.48;102289.03;5060199;28;1317;-81
2023/05/20 04:09:58;;;;;;;;;;;;;;;10.82;73.99;102299.59;5046685;28;1257;-81
2023/05/20 04:12:29;;;;;;;;;;;;;;;10.80;74.23;102299.69;5046094;28;1368;-81
2023/05/20 04:15:01;;;;;;;;;;;;;;;10.77;74.43;102302.44;5044779;28;1311;-81
2023/05/20 04:17:28;;;;;;;;;;;;;;;10.79;73.67;102299.78;5057105;28;1148;-80
2023/05/20 04:19:54;;;;;;;;;;;;;;;10.81;73.61;102297.91;5045718;28;1964;-82
2023/05/20 04:22:19;;;;;;;;;;;;;;;10.82;74.58;102302.19;5047607;28;1263;-81
2023/05/20 04:24:44;;;;;;;;;;;;;;;10.79;74.67;102295.44;5062831;28;1277;-81
2023/05/20 04:27:10;;;;;;;;;;;;;;;10.81;75.05;102290.13;5047353;28;1328;-80
2023/05/20 04:29:35;;;;;;;;;;;;;;;10.80;74.05;102294.50;5047558;28;1236;-80
2023/05/20 04:32:02;;;;;;;;;;;;;;;10.81;74.62;102288.38;5059884;28;1515;-80
2023/05/20 04:34:33;;;;;;;;;;;;;;;10.85;74.34;102299.41;5046956;28;1267;-81
2023/05/20 04:36:59;;;;;;;;;;;;;;;10.87;74.08;102290.59;5048408;28;1177;-81
2023/05/20 04:39:24;;;;;;;;;;;;;;;10.86;75.07;102294.13;5047347;28;1894;-82
2023/05/20 04:41:53;;;;;;;;;;;;;;;10.88;75.63;102304.41;5047129;28;1186;-80
2023/05/20 04:44:18;;;;;;;;;;;;;;;10.87;75.97;102305.34;5047091;28;1125;-81
2023/05/20 04:46:44;;;;;;;;;;;;;;;10.89;76.44;102306.91;5047914;28;1158;-81
2023/05/20 04:49:10;;;;;;;;;;;;;;;10.90;76.27;102308.59;5054463;28;1132;-81
2023/05/20 04:51:35;;;;;;;;;;;;;;;10.92;76.55;102311.09;5046149;28;1235;-81
2023/05/20 04:54:01;;;;;;;;;;;;;;;10.94;75.46;102304.03;5049921;28;1361;-81
2023/05/20 04:56:26;;;;;;;;;;;;;;;10.95;75.57;102300.53;5050508;28;1349;-82
2023/05/20 04:58:51;;;;;;;;;;;;;;;10.96;75.64;102302.22;5065321;28;1404;-81
2023/05/20 05:01:16;;;;;;;;;;;;;;;10.97;76.35;102293.50;5049850;28;1906;-80
2023/05/20 05:03:42;;;;;;;;;;;;;;;10.98;76.48;102295.16;5064261;28;1393;-81
2023/05/20 05:06:07;;;;;;;;;;;;;;;11.02;75.48;102304.44;5051799;28;1306;-81
2023/05/20 05:08:32;;;;;;;;;;;;;;;11.06;77.36;102300.72;5050717;28;1442;-82
2023/05/20 05:10:57;;;;;;;;;;;;;;;11.06;76.54;102303.31;5050054;28;1293;-80
2023/05/20 05:13:22;;;;;;;;;;;;;;;11.10;77.50;102299.63;5063042;28;1333;-81
2023/05/20 05:15:47;;;;;;;;;;;;;;;11.13;77.00;102293.41;5051070;28;1036;-80
2023/05/20 05:18:17;;;;;;;;;;;;;;;11.14;77.40;102295.09;5049503;28;1332;-82
2023/05/20 05:20:42;;;;;;;;;;;;;;;11.17;77.70;102300.91;5051807;28;1906;-81
2023/05/20 05:23:07;;;;;;;;;;;;;;;11.19;78.35;102287.84;5050812;28;1168;-81
2023/05/20 05:25:32;;;;;;;;;;;;;;;11.23;77.00;102288.47;5059618;28;1298;-81
2023/05/20 05:27:57;;;;;;;;;;;;;;;11.27;78.30;102287.38;5049960;28;1332;-81
2023/05/20 05:30:23;;;;;;;;;;;;;;;11.29;77.16;102282.91;5049221;28;1114;-81
2023/05/20 05:32:48;;;;;;;;;;;;;;;11.35;77.73;102282.53;5050272;28;1331;-81
2023/05/20 05:35:13;;;;;;;;;;;;;;;11.38;78.62;102287.56;5051652;28;1124;-81
2023/05/20 05:37:38;;;;;;;;;;;;;;;11.41;77.42;102288.22;5051812;28;1085;-80
2023/05/20 05:40:04;;;;;;;;;;;;;;;11.47;78.52;102292.19;5049837;28;2030;-81
2023/05/20 05:42:29;;;;;;;;;;;;;;;11.54;77.97;102293.47;5048637;28;1307;-81
2023/05/20 05:44:54;;;;;;;;;;;;;;;11.59;77.14;102286.22;5050334;28;1088;-81
2023/05/20 05:47:20;;;;;;;;;;;;;;;11.65;77.40;102285.84;5052092;28;1200;-82
2023/05/20 05:49:45;;;;;;;;;;;;;;;11.74;76.85;102293.97;5057494;28;1528;-81
2023/05/20 05:52:10;;;;;;;;;;;;;;;11.81;76.01;102295.25;5051300;28;1418;-82
2023/05/20 05:54:35;;;;;;;;;;;;;;;11.85;76.87;102288.97;5050293;28;1264;-82
2023/05/20 05:57:01;;;;;;;;;;;;;;;11.91;76.65;102285.97;5050294;28;1113;-81
2023/05/20 05:59:26;;;;;;;;;;;;;;;11.98;76.40;102291.63;5049084;28;1922;-79
2023/05/20 06:01:51;;;;;;;;;;;;;;;12.04;76.00;102296.41;5048101;28;1608;-79
2023/05/20 06:04:16;;;;;;;;;;;;;;;12.10;75.99;102285.63;5047182;28;1521;-82
2023/05/20 06:06:42;;;;;;;;;;;;;;;12.17;75.89;102287.75;5065526;28;1394;-81
2023/05/20 06:09:07;;;;;;;;;;;;;;;12.25;75.95;102289.00;5048400;28;1372;-81
2023/05/20 06:11:32;;;;;;;;;;;;;;;12.32;75.36;102287.66;5049844;28;1556;-82
2023/05/20 06:13:58;;;;;;;;;;;;;;;12.39;75.75;102288.94;5050008;28;1041;-82
2023/05/20 06:16:24;;;;;;;;;;;;;;;12.46;75.18;102292.81;5049467;28;1249;-82
2023/05/20 06:18:49;;;;;;;;;;;;;;;12.53;75.31;102288.03;5049727;28;1312;-81
2023/05/20 06:21:14;;;;;;;;;;;;;;;12.60;75.31;102284.91;5048004;28;1902;-81
2023/05/20 06:23:40;;;;;;;;;;;;;;;12.68;75.19;102277.44;5049337;28;1290;-82
2023/05/20 06:26:05;;;;;;;;;;;;;;;12.75;74.52;102278.69;5048663;28;1258;-82
2023/05/20 06:28:30;;;;;;;;;;;;;;;12.82;74.76;102278.25;5059722;28;1453;-82
2023/05/20 06:30:55;;;;;;;;;;;;;;;12.90;73.47;102270.75;5052229;28;1117;-84
2023/05/20 06:33:28;;;;;;;;;;;;;;;12.96;74.04;102271.19;5047698;28;1192;-83
2023/05/20 06:35:54;;;;;;;;;;;;;;;13.04;73.78;102273.25;5049511;28;1303;-83
2023/05/20 06:38:19;;;;;;;;;;;;;;;13.12;73.70;102259.69;5060094;28;1376;-82
2023/05/20 06:40:44;;;;;;;;;;;;;;;13.19;72.99;102269.59;5050062;28;1922;-82
2023/05/20 06:43:09;;;;;;;;;;;;;;;13.27;73.14;102269.91;5047984;28;1280;-82
2023/05/20 06:45:34;;;;;;;;;;;;;;;13.36;72.40;102257.16;5050533;28;1052;-81
2023/05/20 06:48:00;;;;;;;;;;;;;;;13.43;72.19;102263.63;5063177;28;1175;-82
2023/05/20 06:50:27;;;;;;;;;;;;;;;13.49;71.89;102258.81;5047443;28;1322;-82
2023/05/20 06:52:52;;;;;;;;;;;;;;;13.58;72.10;102259.91;5048747;28;1135;-83
2023/05/20 06:55:17;;;;;;;;;;;;;;;13.67;72.13;102261.88;5047565;28;1533;-81
2023/05/20 06:57:43;;;;;;;;;;;;;;;13.76;71.80;102255.16;5048973;28;1082;-84
2023/05/20 07:00:09;;;;;;;;;;;;;;;13.86;70.89;102257.94;5047224;28;1906;-83
2023/05/20 07:02:34;;;;;;;;;;;;;;;13.93;70.76;102252.16;5050282;28;1280;-81
2023/05/20 07:04:59;;;;;;;;;;;;;;;14.00;69.95;102247.34;5044979;28;1268;-81
2023/05/20 07:07:24;;;;;;;;;;;;;;;14.09;70.07;102246.66;5047516;28;1514;-84
2023/05/20 07:09:50;;;;;;;;;;;;;;;14.13;69.21;102247.28;5047167;28;1588;-83
2023/05/20 07:12:15;;;;;;;;;;;;;;;14.20;69.53;102249.31;5063272;28;1310;-85
2023/05/20 07:14:41;;;;;;;;;;;;;;;14.27;68.29;102245.28;5049090;28;1167;-82
2023/05/20 07:17:07;;;;;;;;;;;;;;;14.31;67.67;102238.88;5048539;28;1077;-83
2023/05/20 07:19:32;;;;;;;;;;;;;;;14.38;67.91;102248.88;5063407;28;1902;-84
2023/05/20 07:21:57;;;;;;;;;;;;;;;14.44;67.89;102240.56;5060499;28;1210;-82
2023/05/20 07:24:23;;;;;;;;;;;;;;;14.53;68.30;102239.94;5048767;28;1077;-82
2023/05/20 07:26:48;;;;;;;;;;;;;;;14.63;66.97;102240.06;5048241;28;1084;-80
2023/05/20 07:29:13;;;;;;;;;;;;;;;14.71;66.89;102230.69;5049277;28;1140;-84
2023/05/20 07:31:38;;;;;;;;;;;;;;;14.78;66.72;102234.47;5051363;28;1119;-81
2023/05/20 07:34:03;;;;;;;;;;;;;;;14.87;66.65;102228.56;5050261;28;1051;-85
2023/05/20 07:36:29;;;;;;;;;;;;;;;14.95;64.04;102240.19;5047342;28;1466;-83
2023/05/20 07:38:54;;;;;;;;;;;;;;;15.01;66.04;102230.09;5048740;28;1126;-86
2023/05/20 07:41:20;;;;;;;;;;;;;;;15.07;65.78;102220.94;5047669;28;1906;-84
2023/05/20 07:43:45;;;;;;;;;;;;;;;15.16;64.98;102220.22;5046392;28;1352;-85
2023/05/20 07:46:10;;;;;;;;;;;;;;;15.25;64.05;102216.03;5047305;28;1100;-80
2023/05/20 07:48:35;;;;;;;;;;;;;;;15.31;63.37;102211.19;5066080;28;1168;-82
2023/05/20 07:51:01;;;;;;;;;;;;;;;15.40;62.96;102220.88;5050153;28;1271;-83
2023/05/20 07:53:26;;;;;;;;;;;;;;;15.47;62.38;102217.78;5056254;28;1231;-85
2023/05/20 07:55:51;;;;;;;;;;;;;;;15.51;62.63;102221.81;5051145;28;1129;-77
2023/05/20 07:58:16;;;;;;;;;;;;;;;15.59;61.05;102224.63;5045204;28;1414;-82
2023/05/20 08:00:43;;;;;;;;;;;;;;;15.67;62.18;102214.44;5046904;28;1894;-84
2023/05/20 08:03:08;;;;;;;;;;;;;;;15.77;62.26;102217.97;5046657;28;1318;-80
2023/05/20 08:05:35;;;;;;;;;;;;;;;15.84;61.34;102213.88;5046988;28;1240;-81
2023/05/20 08:08:00;;;;;;;;;;;;;;;15.90;59.15;102216.00;5046205;28;1264;-84
2023/05/20 08:10:26;;;;;;;;;;;;;;;15.87;58.49;102213.63;5048056;28;1350;-82
2023/05/20 08:12:51;;;;;;;;;;;;;;;15.86;59.45;102219.81;5050844;28;1274;-84
2023/05/20 08:15:16;;;;;;;;;;;;;;;15.91;57.72;102225.50;5044917;28;1251;-82
2023/05/20 08:17:41;;;;;;;;;;;;;;;15.90;56.64;102218.63;5046485;28;1206;-82
2023/05/20 08:20:07;;;;;;;;;;;;;;;15.96;58.04;102211.22;5045914;28;1902;-86
2023/05/20 08:22:32;;;;;;;;;;;;;;;15.99;56.29;102200.50;5046094;28;1230;-86
2023/05/20 08:24:58;;;;;;;;;;;;;;;15.99;56.25;102217.03;5047751;28;1338;-85
2023/05/20 08:27:23;;;;;;;;;;;;;;;16.02;56.96;102211.53;5064462;28;1675;-85
2023/05/20 08:29:48;;;;;;;;;;;;;;;16.06;56.70;102222.59;5042486;28;1191;-84
2023/05/20 08:32:14;;;;;;;;;;;;;;;16.08;56.38;102225.91;5046614;28;1220;-84
2023/05/20 08:34:39;;;;;;;;;;;;;;;16.10;55.23;102205.66;5047758;28;1236;-85
2023/05/20 08:37:04;;;;;;;;;;;;;;;16.10;56.46;102208.28;5061864;28;1306;-82
2023/05/20 08:39:29;;;;;;;;;;;;;;;16.15;56.02;102200.88;5048054;28;1902;-83
2023/05/20 08:41:55;;;;;;;;;;;;;;;16.19;56.05;102202.28;5047353;28;1235;-84
2023/05/20 08:44:20;;;;;;;;;;;;;;;16.25;56.52;102207.03;5060827;28;1306;-84
2023/05/20 08:46:46;;;;;;;;;;;;;;;16.34;56.20;102195.75;5045500;28;1156;-83
2023/05/20 08:49:11;;;;;;;;;;;;;;;16.43;56.56;102189.75;5046154;28;1310;-83
2023/05/20 08:51:37;;;;;;;;;;;;;;;16.58;56.51;102189.44;5044236;28;1314;-84
2023/05/20 08:54:03;;;;;;;;;;;;;;;16.67;56.85;102186.00;5047492;28;1009;-84
2023/05/20 08:56:28;;;;;;;;;;;;;;;16.72;54.84;102183.84;5062619;28;1295;-83
2023/05/20 08:58:53;;;;;;;;;;;;;;;16.79;54.77;102178.91;5057178;28;1183;-83
2023/05/20 09:01:22;;;;;;;;;;;;;;;16.83;55.62;102194.22;5045868;28;1898;-84
2023/05/20 09:03:48;;;;;;;;;;;;;;;16.86;55.21;102185.25;5044633;28;1557;-84
2023/05/20 09:06:15;;;;;;;;;;;;;;;16.74;54.93;102187.16;5045294;28;1268;-83
2023/05/20 09:08:40;;;;;;;;;;;;;;;16.71;55.52;102176.94;5051489;28;1134;-83
2023/05/20 09:11:08;;;;;;;;;;;;;;;16.77;55.17;102181.66;5048458;28;1627;-83
2023/05/20 09:13:33;;;;;;;;;;;;;;;16.85;54.56;102188.84;5045665;28;1159;-82
2023/05/20 09:16:00;;;;;;;;;;;;;;;16.92;54.30;102185.59;5048469;28;1159;-83
2023/05/20 09:18:25;;;;;;;;;;;;;;;17.01;54.98;102172.63;5056129;28;1171;-83
2023/05/20 09:20:51;;;;;;;;;;;;;;;17.10;52.93;102174.47;5046951;28;1898;-82
2023/05/20 09:23:18;;;;;;;;;;;;;;;17.16;53.68;102176.53;5046505;28;1484;-84
2023/05/20 09:25:43;;;;;;;;;;;;;;;17.27;53.96;102163.31;5045995;28;1190;-82
2023/05/20 09:28:08;;;;;;;;;;;;;;;17.32;52.17;102161.09;5046037;28;1171;-83
2023/05/20 09:30:33;;;;;;;;;;;;;;;17.25;52.12;102160.78;5045564;28;1317;-84
2023/05/20 09:32:59;;;;;;;;;;;;;;;17.31;51.68;102164.66;5046800;28;1084;-84
2023/05/20 09:35:25;;;;;;;;;;;;;;;17.27;52.18;102171.16;5048500;28;1198;-84
2023/05/20 09:37:54;;;;;;;;;;;;;;;17.36;51.92;102162.47;5046534;28;1331;-84
2023/05/20 09:40:25;;;;;;;;;;;;;;;17.29;52.13;102161.38;5044159;28;1905;-84
2023/05/20 09:43:00;;;;;;;;;;;;;;;17.37;51.28;102158.88;5046373;28;1215;-78
2023/05/20 09:45:25;;;;;;;;;;;;;;;17.40;51.52;102163.88;5049871;28;1229;-82
2023/05/20 09:47:54;;;;;;;;;;;;;;;17.46;51.95;102155.44;5050180;28;1513;-81
2023/05/20 09:50:23;;;;;;;;;;;;;;;17.56;51.45;102147.59;5052153;28;1632;-81
2023/05/20 09:52:49;;;;;;;;;;;;;;;17.57;51.52;102162.34;5062395;28;1314;-82
2023/05/20 09:55:16;;;;;;;;;;;;;;;17.59;51.47;102156.97;5062328;28;1368;-83
2023/05/20 09:57:41;;;;;;;;;;;;;;;17.62;51.67;102151.44;5050268;28;1220;-84
2023/05/20 10:00:12;;;;;;;;;;;;;;;17.68;51.03;102145.66;5049844;28;1965;-83
2023/05/20 10:02:37;;;;;;;;;;;;;;;17.72;51.47;102152.28;5051096;28;1193;-83
2023/05/20 10:05:05;;;;;;;;;;;;;;;17.77;51.42;102156.13;5049331;28;1220;-83
2023/05/20 10:07:50;;;;;;;;;;;;;;;17.81;51.26;102161.13;5052287;28;1239;-83
2023/05/20 10:10:16;;;;;;;;;;;;;;;17.85;51.54;102152.84;5048460;28;1319;-82
2023/05/20 10:12:50;;;;;;;;;;;;;;;17.88;50.42;102142.03;5062459;28;1406;-82
2023/05/20 10:15:22;;;;;;;;;;;;;;;17.93;51.52;102147.69;5049299;28;1360;-83
2023/05/20 10:17:47;;;;;;;;;;;;;;;17.93;50.75;102136.38;5047578;28;1312;-84
2023/05/20 10:20:12;;;;;;;;;;;;;;;17.93;51.07;102137.19;5048353;28;1967;-81
2023/05/20 10:22:39;;;;;;;;;;;;;;;18.01;50.97;102137.34;5048001;28;1219;-85
2023/05/20 10:25:08;;;;;;;;;;;;;;;18.11;50.55;102131.22;5056037;28;1251;-82
2023/05/20 10:27:46;;;;;;;;;;;;;;;18.17;51.10;102120.16;5049547;28;1358;-81
2023/05/20 10:30:17;;;;;;;;;;;;;;;18.25;51.44;102128.97;5048380;28;1272;-82
2023/05/20 10:32:55;;;;;;;;;;;;;;;18.31;49.81;102122.31;5043615;28;1358;-82
2023/05/20 10:35:21;;;;;;;;;;;;;;;18.29;49.99;102129.50;5048913;28;1525;-84
2023/05/20 10:37:49;;;;;;;;;;;;;;;18.34;49.77;102132.53;5049571;28;1275;-85
2023/05/20 10:40:16;;;;;;;;;;;;;;;18.29;49.74;102119.00;5048722;28;1961;-78
2023/05/20 10:42:42;;;;;;;;;;;;;;;18.37;48.98;102121.75;5048137;28;1260;-81
2023/05/20 10:45:08;;;;;;;;;;;;;;;18.39;49.03;102109.28;5047304;28;1269;-83
2023/05/20 10:47:33;;;;;;;;;;;;;;;18.45;48.30;102113.94;5048990;28;1439;-83
2023/05/20 10:50:00;;;;;;;;;;;;;;;18.47;49.23;102117.28;5047171;28;1215;-83
2023/05/20 10:52:26;;;;;;;;;;;;;;;18.52;49.71;102098.44;5047975;28;1325;-84
2023/05/20 10:54:55;;;;;;;;;;;;;;;18.52;48.62;102109.78;5059381;28;1238;-83
2023/05/20 10:57:21;;;;;;;;;;;;;;;18.54;48.74;102099.94;5048999;28;1494;-82
2023/05/20 10:59:47;;;;;;;;;;;;;;;18.52;49.44;102104.53;5048638;28;1918;-83
2023/05/20 11:02:14;;;;;;;;;;;;;;;18.63;48.89;102107.91;5047732;28;1270;-85
2023/05/20 11:04:41;;;;;;;;;;;;;;;18.65;48.54;102098.09;5048670;28;1456;-82
2023/05/20 11:07:07;;;;;;;;;;;;;;;18.66;49.51;102099.75;5048885;28;1224;-83
2023/05/20 11:09:33;;;;;;;;;;;;;;;18.71;49.39;102094.91;5061108;28;1206;-83
2023/05/20 11:11:58;;;;;;;;;;;;;;;18.73;49.78;102091.16;5048685;28;1060;-83
2023/05/20 11:14:23;;;;;;;;;;;;;;;18.81;47.82;102087.81;5048761;28;1091;-82
2023/05/20 11:16:53;;;;;;;;;;;;;;;18.88;48.94;102091.50;5049131;28;1214;-84
2023/05/20 11:19:18;;;;;;;;;;;;;;;18.93;48.72;102086.63;5046647;28;1290;-85
2023/05/20 11:21:47;;;;;;;;;;;;;;;18.97;47.72;102087.94;5048183;28;1957;-83
2023/05/20 11:24:12;;;;;;;;;;;;;;;19.09;48.10;102091.19;5047458;28;1175;-82
2023/05/20 11:26:38;;;;;;;;;;;;;;;19.13;48.15;102075.94;5048713;28;1339;-82
2023/05/20 11:29:03;;;;;;;;;;;;;;;19.13;46.49;102082.03;5045243;28;1612;-82
2023/05/20 11:31:29;;;;;;;;;;;;;;;19.16;47.71;102075.66;5048253;28;1251;-85
2023/05/20 11:33:54;;;;;;;;;;;;;;;19.27;48.30;102072.78;5047846;28;1093;-82
2023/05/20 11:36:21;;;;;;;;;;;;;;;19.36;47.43;102087.66;5051470;28;1154;-83
2023/05/20 11:38:46;;;;;;;;;;;;;;;19.35;47.54;102075.47;5046010;28;1411;-84
2023/05/20 11:41:12;;;;;;;;;;;;;;;19.31;47.75;102076.75;5047091;28;1941;-82
2023/05/20 11:43:37;;;;;;;;;;;;;;;19.29;47.00;102073.47;5048446;28;1167;-83
2023/05/20 11:46:03;;;;;;;;;;;;;;;19.31;48.17;102068.88;5056871;28;1316;-84
2023/05/20 11:48:29;;;;;;;;;;;;;;;19.41;47.31;102056.44;5053946;28;1207;-80
2023/05/20 11:50:55;;;;;;;;;;;;;;;19.45;48.14;102070.13;5046058;28;1271;-80
2023/05/20 11:53:21;;;;;;;;;;;;;;;19.49;48.01;102064.41;5046436;28;1325;-82
2023/05/20 11:55:53;;;;;;;;;;;;;;;19.47;47.77;102069.00;5047322;28;1160;-83
2023/05/20 11:58:20;;;;;;;;;;;;;;;19.43;47.67;102066.81;5046072;28;1278;-82
2023/05/20 12:00:45;;;;;;;;;;;;;;;19.39;47.80;102068.94;5048250;28;1875;-82
2023/05/20 12:03:11;;;;;;;;;;;;;;;19.40;47.91;102052.19;5044598;28;1231;-84
2023/05/20 12:05:36;;;;;;;;;;;;;;;19.47;47.50;102058.47;5039002;28;1254;-82
2023/05/20 12:08:02;;;;;;;;;;;;;;;19.54;48.14;102048.97;5046533;28;1401;-86
2023/05/20 12:10:28;;;;;;;;;;;;;;;19.63;46.27;102050.72;5045281;28;1184;-86
2023/05/20 12:12:53;;;;;;;;;;;;;;;19.54;47.32;102033.19;5046994;28;1371;-83
2023/05/20 12:15:18;;;;;;;;;;;;;;;19.57;45.46;102046.03;5045689;28;1330;-84
2023/05/20 12:17:47;;;;;;;;;;;;;;;19.54;46.23;102041.06;5047660;28;1514;-83
2023/05/20 12:20:14;;;;;;;;;;;;;;;19.53;46.23;102043.88;5045770;28;1902;-85
2023/05/20 12:22:40;;;;;;;;;;;;;;;19.47;46.54;102042.69;5048625;28;1589;-85
2023/05/20 12:25:06;;;;;;;;;;;;;;;19.49;46.00;102045.16;5046030;28;1379;-84
2023/05/20 12:27:32;;;;;;;;;;;;;;;19.44;47.04;102048.28;5050067;28;1367;-85
2023/05/20 12:29:57;;;;;;;;;;;;;;;19.43;46.32;102051.84;5060733;28;1360;-86
2023/05/20 12:32:23;;;;;;;;;;;;;;;19.42;47.18;102047.56;5045751;28;1294;-85
2023/05/20 12:34:48;;;;;;;;;;;;;;;19.40;46.19;102046.91;5045897;28;1344;-83
2023/05/20 12:37:13;;;;;;;;;;;;;;;19.39;47.47;102040.00;5048651;28;1317;-85
2023/05/20 12:39:38;;;;;;;;;;;;;;;19.44;47.04;102047.41;5048272;28;1906;-84
2023/05/20 12:42:03;;;;;;;;;;;;;;;19.42;46.68;102039.69;5044334;28;1334;-85